sensor_id;sensor_type;location;lat;lon;timestamp;pressure;altitude;pressure_sealevel;temperature;humidity
4012;BME280;2020;48.682;9.024;2023-06-10T00:01:18;96052.81;;;18.79;51.87
4012;BME280;2020;48.682;9.024;2023-06-10T00:03:43;96046.81;;;18.71;51.62
4012;BME280;2020;48.682;9.024;2023-06-10T00:06:08;96046.06;;;18.64;52.24
4012;BME280;2020;48.682;9.024;2023-06-10T00:08:33;96045.16;;;18.52;53.04
4012;BME280;2020;48.682;9.024;2023-06-10T00:10:59;96048.53;;;18.59;52.53
4012;BME280;2020;48.682;9.024;2023-06-10T00:13:25;96047.53;;;18.60;52.94
4012;BME280;2020;48.682;9.024;2023-06-10T00:15:50;96053.22;;;18.57;52.98
4012;BME280;2020;48.682;9.024;2023-06-10T00:18:16;96046.94;;;18.58;52.70
4012;BME280;2020;48.682;9.024;2023-06-10T00:20:41;96045.28;;;18.64;53.04
4012;BME280;2020;48.682;9.024;2023-06-10T00:23:07;96052.59;;;18.62;52.30
4012;BME280;2020;48.682;9.024;2023-06-10T00:25:33;96056.72;;;18.51;53.23
4012;BME280;2020;48.682;9.024;2023-06-10T00:27:58;96049.84;;;18.50;53.40
4012;BME280;2020;48.682;9.024;2023-06-10T00:30:24;96047.53;;;18.60;52.78
4012;BME280;2020;48.682;9.024;2023-06-10T00:32:49;96046.78;;;18.53;53.09
4012;BME280;2020;48.682;9.024;2023-06-10T00:35:15;96042.09;;;18.55;53.03
4012;BME280;2020;48.682;9.024;2023-06-10T00:37:40;96050.59;;;18.57;53.46
4012;BME280;2020;48.682;9.024;2023-06-10T00:40:06;96045.16;;;18.52;53.29
4012;BME280;2020;48.682;9.024;2023-06-10T00:42:33;96041.03;;;18.37;54.04
4012;BME280;2020;48.682;9.024;2023-06-10T00:44:58;96043.41;;;18.46;53.80
4012;BME280;2020;48.682;9.024;2023-06-10T00:47:25;96042.38;;;18.47;53.46
4012;BME280;2020;48.682;9.024;2023-06-10T00:49:50;96047.81;;;18.52;53.72
4012;BME280;2020;48.682;9.024;2023-06-10T00:52:16;96048.72;;;18.39;54.13
4012;BME280;2020;48.682;9.024;2023-06-10T00:54:42;96046.72;;;18.34;54.31
4012;BME280;2020;48.682;9.024;2023-06-10T00:57:08;96050.50;;;18.20;54.62
4012;BME280;2020;48.682;9.024;2023-06-10T00:59:35;96048.97;;;18.05;55.45
4012;BME280;2020;48.682;9.024;2023-06-10T01:02:00;96033.59;;;17.95;55.98
4012;BME280;2020;48.682;9.024;2023-06-10T01:04:27;96047.00;;;17.94;55.86
4012;BME280;2020;48.682;9.024;2023-06-10T01:12:02;96042.97;;;17.84;56.59
4012;BME280;2020;48.682;9.024;2023-06-10T01:14:33;96046.19;;;17.87;56.08
4012;BME280;2020;48.682;9.024;2023-06-10T01:17:00;96038.13;;;17.81;56.59
4012;BME280;2020;48.682;9.024;2023-06-10T01:19:26;96040.00;;;17.74;57.31
4012;BME280;2020;48.682;9.024;2023-06-10T01:21:51;96039.03;;;17.68;57.06
4012;BME280;2020;48.682;9.024;2023-06-10T01:24:17;96033.00;;;17.61;57.30
4012;BME280;2020;48.682;9.024;2023-06-10T01:26:44;96039.28;;;17.53;57.93
4012;BME280;2020;48.682;9.024;2023-06-10T01:29:24;96035.47;;;17.49;57.90
4012;BME280;2020;48.682;9.024;2023-06-10T01:32:12;96044.03;;;17.38;58.47
4012;BME280;2020;48.682;9.024;2023-06-10T01:34:42;96037.97;;;17.37;58.63
4012;BME280;2020;48.682;9.024;2023-06-10T01:37:09;96041.44;;;17.31;59.05
4012;BME280;2020;48.682;9.024;2023-06-10T01:39:37;96042.47;;;17.23;58.95
4012;BME280;2020;48.682;9.024;2023-06-10T01:42:03;96034.38;;;17.18;59.36
4012;BME280;2020;48.682;9.024;2023-06-10T01:44:29;96047.34;;;17.13;59.50
4012;BME280;2020;48.682;9.024;2023-06-10T01:46:55;96044.53;;;17.01;60.37
4012;BME280;2020;48.682;9.024;2023-06-10T01:49:20;96051.41;;;17.02;59.96
4012;BME280;2020;48.682;9.024;2023-06-10T01:51:47;96057.09;;;16.92;59.95
4012;BME280;2020;48.682;9.024;2023-06-10T01:54:12;96057.91;;;16.86;60.35
4012;BME280;2020;48.682;9.024;2023-06-10T01:56:37;96057.09;;;16.79;60.26
4012;BME280;2020;48.682;9.024;2023-06-10T01:59:02;96059.53;;;16.87;60.52
4012;BME280;2020;48.682;9.024;2023-06-10T02:01:28;96057.09;;;16.72;60.92
4012;BME280;2020;48.682;9.024;2023-06-10T02:03:53;96054.69;;;16.71;61.06
4012;BME280;2020;48.682;9.024;2023-06-10T02:06:19;96069.66;;;16.63;61.50
4012;BME280;2020;48.682;9.024;2023-06-10T02:08:44;96062.78;;;16.62;61.87
4012;BME280;2020;48.682;9.024;2023-06-10T02:11:09;96058.56;;;16.61;61.79
4012;BME280;2020;48.682;9.024;2023-06-10T02:13:35;96068.84;;;16.49;62.21
4012;BME280;2020;48.682;9.024;2023-06-10T02:16:00;96064.78;;;16.47;62.49
4012;BME280;2020;48.682;9.024;2023-06-10T02:18:26;96067.81;;;16.30;63.28
4012;BME280;2020;48.682;9.024;2023-06-10T02:20:53;96068.25;;;16.34;62.84
4012;BME280;2020;48.682;9.024;2023-06-10T02:23:18;96066.81;;;16.31;62.95
4012;BME280;2020;48.682;9.024;2023-06-10T02:25:43;96074.09;;;16.29;63.19
4012;BME280;2020;48.682;9.024;2023-06-10T02:28:09;96067.22;;;16.28;63.15
4012;BME280;2020;48.682;9.024;2023-06-10T02:30:34;96070.88;;;16.20;63.04
4012;BME280;2020;48.682;9.024;2023-06-10T02:33:00;96070.88;;;16.20;63.07
4012;BME280;2020;48.682;9.024;2023-06-10T02:35:26;96068.44;;;16.19;63.68
4012;BME280;2020;48.682;9.024;2023-06-10T02:37:51;96072.84;;;16.12;63.20
4012;BME280;2020;48.682;9.024;2023-06-10T02:40:16;96079.34;;;16.09;63.67
4012;BME280;2020;48.682;9.024;2023-06-10T02:42:41;96084.97;;;15.92;64.31
4012;BME280;2020;48.682;9.024;2023-06-10T02:45:07;96086.91;;;15.84;64.02
4012;BME280;2020;48.682;9.024;2023-06-10T02:47:33;96087.38;;;15.94;64.66
4012;BME280;2020;48.682;9.024;2023-06-10T02:49:58;96086.56;;;15.93;64.23
4012;BME280;2020;48.682;9.024;2023-06-10T02:52:23;96086.09;;;15.83;63.62
4012;BME280;2020;48.682;9.024;2023-06-10T02:54:50;96091.34;;;15.76;64.48
4012;BME280;2020;48.682;9.024;2023-06-10T02:57:15;96086.88;;;15.77;65.07
4012;BME280;2020;48.682;9.024;2023-06-10T02:59:40;96086.81;;;15.57;65.28
4012;BME280;2020;48.682;9.024;2023-06-10T03:02:06;96090.06;;;15.59;65.50
4012;BME280;2020;48.682;9.024;2023-06-10T03:04:31;96096.09;;;15.53;66.13
4012;BME280;2020;48.682;9.024;2023-06-10T03:06:56;96092.41;;;15.40;66.16
4012;BME280;2020;48.682;9.024;2023-06-10T03:09:22;96092.81;;;15.37;66.82
4012;BME280;2020;48.682;9.024;2023-06-10T03:11:47;96094.41;;;15.38;66.76
4012;BME280;2020;48.682;9.024;2023-06-10T03:14:12;96097.66;;;15.40;66.45
4012;BME280;2020;48.682;9.024;2023-06-10T03:16:38;96095.66;;;15.42;66.59
4012;BME280;2020;48.682;9.024;2023-06-10T03:19:07;96101.28;;;15.39;66.34
4012;BME280;2020;48.682;9.024;2023-06-10T03:21:34;96112.13;;;15.29;66.91
4012;BME280;2020;48.682;9.024;2023-06-10T03:23:59;96109.31;;;15.31;67.10
4012;BME280;2020;48.682;9.024;2023-06-10T03:26:26;96105.63;;;15.25;66.82
4012;BME280;2020;48.682;9.024;2023-06-10T03:28:52;96109.69;;;15.28;66.89
4012;BME280;2020;48.682;9.024;2023-06-10T03:31:18;96110.84;;;15.18;67.62
4012;BME280;2020;48.682;9.024;2023-06-10T03:33:43;96108.41;;;15.17;67.97
4012;BME280;2020;48.682;9.024;2023-06-10T03:36:08;96107.56;;;15.10;67.89
4012;BME280;2020;48.682;9.024;2023-06-10T03:38:33;96104.34;;;15.14;67.50
4012;BME280;2020;48.682;9.024;2023-06-10T03:40:59;96111.59;;;15.12;67.79
4012;BME280;2020;48.682;9.024;2023-06-10T03:43:24;96109.22;;;15.17;67.71
4012;BME280;2020;48.682;9.024;2023-06-10T03:45:50;96116.50;;;15.22;67.81
4012;BME280;2020;48.682;9.024;2023-06-10T03:48:15;96113.69;;;15.24;67.34
4012;BME280;2020;48.682;9.024;2023-06-10T03:50:41;96114.06;;;15.20;66.72
4012;BME280;2020;48.682;9.024;2023-06-10T03:53:06;96117.28;;;15.16;66.58
4012;BME280;2020;48.682;9.024;2023-06-10T03:55:32;96113.69;;;15.24;67.36
4012;BME280;2020;48.682;9.024;2023-06-10T03:57:57;96122.94;;;15.19;67.71
4012;BME280;2020;48.682;9.024;2023-06-10T04:00:23;96127.25;;;14.99;68.65
4012;BME280;2020;48.682;9.024;2023-06-10T04:02:48;96124.88;;;15.04;68.56
4012;BME280;2020;48.682;9.024;2023-06-10T04:05:17;96127.41;;;14.90;69.13
4012;BME280;2020;48.682;9.024;2023-06-10T04:07:43;96128.31;;;14.76;70.14
4012;BME280;2020;48.682;9.024;2023-06-10T04:10:10;96131.13;;;14.74;70.62
4012;BME280;2020;48.682;9.024;2023-06-10T04:12:36;96125.50;;;14.77;70.19
4012;BME280;2020;48.682;9.024;2023-06-10T04:15:02;96123.88;;;14.76;70.47
4012;BME280;2020;48.682;9.024;2023-06-10T04:17:28;96132.00;;;14.88;70.05
4012;BME280;2020;48.682;9.024;2023-06-10T04:19:53;96124.59;;;14.92;69.54
4012;BME280;2020;48.682;9.024;2023-06-10T04:22:20;96123.84;;;15.05;69.15
4012;BME280;2020;48.682;9.024;2023-06-10T04:24:45;96135.78;;;15.08;68.47
4012;BME280;2020;48.682;9.024;2023-06-10T04:27:11;96133.34;;;15.06;68.91
4012;BME280;2020;48.682;9.024;2023-06-10T04:29:36;96133.41;;;15.19;68.65
4012;BME280;2020;48.682;9.024;2023-06-10T04:32:01;96138.59;;;15.06;67.81
4012;BME280;2020;48.682;9.024;2023-06-10T04:34:27;96137.41;;;15.09;68.77
4012;BME280;2020;48.682;9.024;2023-06-10T04:36:53;96141.81;;;15.08;69.19
4012;BME280;2020;48.682;9.024;2023-06-10T04:39:18;96131.72;;;15.05;69.16
4012;BME280;2020;48.682;9.024;2023-06-10T04:41:43;96138.97;;;15.03;69.32
4012;BME280;2020;48.682;9.024;2023-06-10T04:44:09;96131.16;;;15.10;68.10
4012;BME280;2020;48.682;9.024;2023-06-10T04:46:35;96138.28;;;15.23;68.15
4012;BME280;2020;48.682;9.024;2023-06-10T04:49:01;96136.66;;;15.21;68.83
4012;BME280;2020;48.682;9.024;2023-06-10T04:51:26;96144.16;;;15.25;68.95
4012;BME280;2020;48.682;9.024;2023-06-10T04:53:51;96136.75;;;15.35;68.59
4012;BME280;2020;48.682;9.024;2023-06-10T04:56:17;96130.81;;;15.55;68.38
4012;BME280;2020;48.682;9.024;2023-06-10T04:58:42;96141.75;;;15.65;66.81
4012;BME280;2020;48.682;9.024;2023-06-10T05:01:08;96143.34;;;15.66;67.18
4012;BME280;2020;48.682;9.024;2023-06-10T05:03:33;96134.88;;;15.64;67.24
4012;BME280;2020;48.682;9.024;2023-06-10T05:05:58;96147.63;;;15.74;67.39
4012;BME280;2020;48.682;9.024;2023-06-10T05:08:23;96147.25;;;15.84;66.31
4012;BME280;2020;48.682;9.024;2023-06-10T05:10:49;96145.91;;;15.88;65.16
4012;BME280;2020;48.682;9.024;2023-06-10T05:13:16;96143.88;;;15.90;65.03
4012;BME280;2020;48.682;9.024;2023-06-10T05:15:41;96142.69;;;15.99;66.35
4012;BME280;2020;48.682;9.024;2023-06-10T05:18:09;96144.72;;;15.97;65.98
4012;BME280;2020;48.682;9.024;2023-06-10T05:20:35;96138.31;;;16.13;66.13
4012;BME280;2020;48.682;9.024;2023-06-10T05:23:00;96144.38;;;16.27;64.44
4012;BME280;2020;48.682;9.024;2023-06-10T05:25:26;96151.63;;;16.25;66.96
4012;BME280;2020;48.682;9.024;2023-06-10T05:27:52;96154.50;;;16.44;66.95
4012;BME280;2020;48.682;9.024;2023-06-10T05:30:18;96151.91;;;16.57;67.22
4012;BME280;2020;48.682;9.024;2023-06-10T05:32:43;96158.38;;;16.75;66.59
4012;BME280;2020;48.682;9.024;2023-06-10T05:35:09;96157.19;;;16.98;65.36
4012;BME280;2020;48.682;9.024;2023-06-10T05:37:34;96152.94;;;17.10;65.86
4012;BME280;2020;48.682;9.024;2023-06-10T05:40:02;96160.19;;;17.21;65.36
4012;BME280;2020;48.682;9.024;2023-06-10T05:42:27;96151.25;;;17.36;65.17
4012;BME280;2020;48.682;9.024;2023-06-10T05:44:52;96157.72;;;17.40;65.03
4012;BME280;2020;48.682;9.024;2023-06-10T05:47:18;96155.25;;;17.59;64.55
4012;BME280;2020;48.682;9.024;2023-06-10T05:49:43;96160.88;;;17.69;64.22
4012;BME280;2020;48.682;9.024;2023-06-10T05:52:10;96162.84;;;17.87;63.85
4012;BME280;2020;48.682;9.024;2023-06-10T05:54:35;96165.63;;;17.99;63.33
4012;BME280;2020;48.682;9.024;2023-06-10T05:57:01;96158.53;;;18.06;64.09
4012;BME280;2020;48.682;9.024;2023-06-10T05:59:26;96157.63;;;18.26;63.24
4012;BME280;2020;48.682;9.024;2023-06-10T06:01:52;96155.00;;;18.26;63.03
4012;BME280;2020;48.682;9.024;2023-06-10T06:04:17;96155.84;;;18.52;62.56
4012;BME280;2020;48.682;9.024;2023-06-10T06:06:42;96162.03;;;18.64;61.77
4012;BME280;2020;48.682;9.024;2023-06-10T06:09:07;96159.88;;;18.80;61.44
4012;BME280;2020;48.682;9.024;2023-06-10T06:11:34;96158.97;;;18.93;60.88
4012;BME280;2020;48.682;9.024;2023-06-10T06:14:00;96165.47;;;18.97;60.75
4012;BME280;2020;48.682;9.024;2023-06-10T06:16:25;96157.47;;;19.04;61.15
4012;BME280;2020;48.682;9.024;2023-06-10T06:18:50;96163.66;;;19.16;60.92
4012;BME280;2020;48.682;9.024;2023-06-10T06:21:16;96167.38;;;19.34;61.05
4012;BME280;2020;48.682;9.024;2023-06-10T06:23:41;96164.16;;;19.32;59.82
4012;BME280;2020;48.682;9.024;2023-06-10T06:26:06;96153.75;;;19.37;60.09
4012;BME280;2020;48.682;9.024;2023-06-10T06:28:31;96161.66;;;19.55;59.56
4012;BME280;2020;48.682;9.024;2023-06-10T06:30:57;96154.53;;;19.75;59.73
4012;BME280;2020;48.682;9.024;2023-06-10T06:33:22;96165.09;;;19.75;59.09
4012;BME280;2020;48.682;9.024;2023-06-10T06:35:47;96158.56;;;19.77;58.74
4012;BME280;2020;48.682;9.024;2023-06-10T06:38:12;96161.94;;;20.03;58.59
4012;BME280;2020;48.682;9.024;2023-06-10T06:40:38;96170.63;;;20.22;58.20
4012;BME280;2020;48.682;9.024;2023-06-10T06:43:03;96162.88;;;20.39;58.10
4012;BME280;2020;48.682;9.024;2023-06-10T06:45:28;96167.31;;;20.27;56.93
4012;BME280;2020;48.682;9.024;2023-06-10T06:47:53;96171.28;;;20.17;57.12
4012;BME280;2020;48.682;9.024;2023-06-10T06:50:19;96170.09;;;20.32;56.80
4012;BME280;2020;48.682;9.024;2023-06-10T06:52:44;96175.75;;;20.48;57.23
4012;BME280;2020;48.682;9.024;2023-06-10T06:55:09;96167.22;;;20.64;56.40
4012;BME280;2020;48.682;9.024;2023-06-10T06:57:34;96174.34;;;20.75;56.82
4012;BME280;2020;48.682;9.024;2023-06-10T07:00:00;96175.09;;;20.83;56.10
4012;BME280;2020;48.682;9.024;2023-06-10T07:02:25;96172.13;;;21.15;55.76
4012;BME280;2020;48.682;9.024;2023-06-10T07:04:50;96186.50;;;21.31;54.97
4012;BME280;2020;48.682;9.024;2023-06-10T07:07:16;96181.78;;;21.33;54.20
4012;BME280;2020;48.682;9.024;2023-06-10T07:09:41;96184.41;;;21.45;54.03
4012;BME280;2020;48.682;9.024;2023-06-10T07:12:07;96187.75;;;21.52;53.57
4012;BME280;2020;48.682;9.024;2023-06-10T07:14:32;96186.34;;;21.61;54.39
4012;BME280;2020;48.682;9.024;2023-06-10T07:16:57;96188.88;;;21.56;53.45
4012;BME280;2020;48.682;9.024;2023-06-10T07:19:23;96175.31;;;21.65;53.51
4012;BME280;2020;48.682;9.024;2023-06-10T07:21:48;96183.19;;;22.00;52.76
4012;BME280;2020;48.682;9.024;2023-06-10T07:24:13;96177.00;;;21.95;52.73
4012;BME280;2020;48.682;9.024;2023-06-10T07:26:38;96177.41;;;22.03;52.87
4012;BME280;2020;48.682;9.024;2023-06-10T07:29:04;96181.31;;;22.13;52.65
4012;BME280;2020;48.682;9.024;2023-06-10T07:31:29;96179.84;;;22.34;52.34
4012;BME280;2020;48.682;9.024;2023-06-10T07:33:54;96183.84;;;22.48;51.31
4012;BME280;2020;48.682;9.024;2023-06-10T07:36:20;96169.81;;;22.36;51.14
4012;BME280;2020;48.682;9.024;2023-06-10T07:38:45;96173.22;;;22.48;49.85
4012;BME280;2020;48.682;9.024;2023-06-10T07:41:10;96168.41;;;22.45;50.75
4012;BME280;2020;48.682;9.024;2023-06-10T07:43:36;96172.94;;;22.62;50.36
4012;BME280;2020;48.682;9.024;2023-06-10T07:46:02;96168.69;;;22.78;50.09
4012;BME280;2020;48.682;9.024;2023-06-10T07:48:27;96170.50;;;23.12;49.36
4012;BME280;2020;48.682;9.024;2023-06-10T07:50:52;96161.91;;;23.04;48.66
4012;BME280;2020;48.682;9.024;2023-06-10T07:53:18;96155.72;;;22.82;48.87
4012;BME280;2020;48.682;9.024;2023-06-10T07:55:43;96165.44;;;22.93;49.14
4012;BME280;2020;48.682;9.024;2023-06-10T07:58:08;96169.41;;;22.73;48.05
4012;BME280;2020;48.682;9.024;2023-06-10T08:00:34;96172.28;;;22.55;49.42
4012;BME280;2020;48.682;9.024;2023-06-10T08:02:59;96164.34;;;22.89;49.33
4012;BME280;2020;48.682;9.024;2023-06-10T08:05:24;96173.03;;;23.35;48.63
4012;BME280;2020;48.682;9.024;2023-06-10T08:07:50;96173.16;;;23.12;48.07
4012;BME280;2020;48.682;9.024;2023-06-10T08:10:15;96172.75;;;23.37;48.29
4012;BME280;2020;48.682;9.024;2023-06-10T08:12:40;96167.38;;;23.49;47.83
4012;BME280;2020;48.682;9.024;2023-06-10T08:15:06;96171.44;;;23.79;47.11
4012;BME280;2020;48.682;9.024;2023-06-10T08:17:31;96166.81;;;23.47;47.84
4012;BME280;2020;48.682;9.024;2023-06-10T08:19:57;96172.38;;;23.68;48.25
4012;BME280;2020;48.682;9.024;2023-06-10T08:22:22;96166.75;;;23.64;47.65
4012;BME280;2020;48.682;9.024;2023-06-10T08:24:47;96173.50;;;23.72;46.91
4012;BME280;2020;48.682;9.024;2023-06-10T08:27:13;96170.06;;;23.99;46.54
4012;BME280;2020;48.682;9.024;2023-06-10T08:29:39;96165.69;;;23.87;46.63
4012;BME280;2020;48.682;9.024;2023-06-10T08:32:04;96169.66;;;24.07;47.49
4012;BME280;2020;48.682;9.024;2023-06-10T08:34:30;96168.13;;;24.11;47.19
4012;BME280;2020;48.682;9.024;2023-06-10T08:36:55;96174.94;;;24.02;47.44
4012;BME280;2020;48.682;9.024;2023-06-10T08:39:23;96166.94;;;24.02;46.90
4012;BME280;2020;48.682;9.024;2023-06-10T08:44:55;96170.28;;;24.69;44.95
4012;BME280;2020;48.682;9.024;2023-06-10T08:47:23;96172.09;;;24.91;45.91
4012;BME280;2020;48.682;9.024;2023-06-10T08:49:50;96170.69;;;24.56;45.09
4012;BME280;2020;48.682;9.024;2023-06-10T08:52:17;96176.09;;;24.66;45.03
4012;BME280;2020;48.682;9.024;2023-06-10T08:54:49;96176.41;;;24.42;45.83
4012;BME280;2020;48.682;9.024;2023-06-10T08:57:17;96170.41;;;24.79;45.13
4012;BME280;2020;48.682;9.024;2023-06-10T08:59:45;96165.28;;;25.10;44.04
4012;BME280;2020;48.682;9.024;2023-06-10T09:02:11;96170.91;;;24.76;44.10
4012;BME280;2020;48.682;9.024;2023-06-10T09:04:37;96172.13;;;24.96;44.52
4012;BME280;2020;48.682;9.024;2023-06-10T09:07:03;96180.31;;;25.27;43.44
4012;BME280;2020;48.682;9.024;2023-06-10T09:09:29;96157.47;;;25.36;42.86
4012;BME280;2020;48.682;9.024;2023-06-10T09:11:57;96164.38;;;25.37;43.84
4012;BME280;2020;48.682;9.024;2023-06-10T09:14:23;96170.28;;;25.45;42.80
4012;BME280;2020;48.682;9.024;2023-06-10T09:16:48;96170.63;;;25.48;42.53
4012;BME280;2020;48.682;9.024;2023-06-10T09:19:16;96163.34;;;25.44;41.82
4012;BME280;2020;48.682;9.024;2023-06-10T09:21:41;96169.59;;;25.60;42.63
4012;BME280;2020;48.682;9.024;2023-06-10T09:24:06;96163.28;;;25.28;42.10
4012;BME280;2020;48.682;9.024;2023-06-10T09:26:32;96166.13;;;25.59;41.41
4012;BME280;2020;48.682;9.024;2023-06-10T09:29:05;96173.06;;;25.60;41.57
4012;BME280;2020;48.682;9.024;2023-06-10T09:31:31;96164.00;;;25.61;41.92
4012;BME280;2020;48.682;9.024;2023-06-10T09:34:26;96166.09;;;25.54;41.97
4012;BME280;2020;48.682;9.024;2023-06-10T09:36:51;96160.81;;;25.59;42.63
4012;BME280;2020;48.682;9.024;2023-06-10T09:39:18;96155.69;;;26.11;42.03
4012;BME280;2020;48.682;9.024;2023-06-10T09:41:45;96153.88;;;26.37;41.14
4012;BME280;2020;48.682;9.024;2023-06-10T09:44:14;96162.72;;;26.74;41.39
4012;BME280;2020;48.682;9.024;2023-06-10T09:46:40;96160.59;;;26.86;42.09
4012;BME280;2020;48.682;9.024;2023-06-10T09:49:06;96161.97;;;26.84;41.04
4012;BME280;2020;48.682;9.024;2023-06-10T09:51:31;96157.88;;;26.24;41.45
4012;BME280;2020;48.682;9.024;2023-06-10T09:53:58;96159.38;;;25.99;41.83
4012;BME280;2020;48.682;9.024;2023-06-10T09:56:35;96157.59;;;26.26;42.14
4012;BME280;2020;48.682;9.024;2023-06-10T09:59:00;96154.94;;;26.26;41.54
4012;BME280;2020;48.682;9.024;2023-06-10T10:01:26;96150.97;;;26.49;41.93
4012;BME280;2020;48.682;9.024;2023-06-10T10:03:52;96164.84;;;26.62;40.64
4012;BME280;2020;48.682;9.024;2023-06-10T10:06:18;96160.81;;;26.49;39.75
4012;BME280;2020;48.682;9.024;2023-06-10T10:08:49;96158.44;;;26.78;41.46
4012;BME280;2020;48.682;9.024;2023-06-10T10:11:19;96150.44;;;26.73;39.92
4012;BME280;2020;48.682;9.024;2023-06-10T10:13:48;96140.84;;;27.19;39.24
4012;BME280;2020;48.682;9.024;2023-06-10T10:16:16;96141.31;;;27.36;39.45
4012;BME280;2020;48.682;9.024;2023-06-10T10:18:46;96136.56;;;27.02;38.64
4012;BME280;2020;48.682;9.024;2023-06-10T10:21:15;96129.91;;;27.05;38.88
4012;BME280;2020;48.682;9.024;2023-06-10T10:26:26;96134.38;;;27.40;38.29
4012;BME280;2020;48.682;9.024;2023-06-10T10:28:58;96141.28;;;27.47;37.88
4012;BME280;2020;48.682;9.024;2023-06-10T10:31:31;96135.59;;;27.74;37.90
4012;BME280;2020;48.682;9.024;2023-06-10T10:33:58;96134.28;;;27.71;37.59
4012;BME280;2020;48.682;9.024;2023-06-10T10:36:25;96130.16;;;27.19;38.50
4012;BME280;2020;48.682;9.024;2023-06-10T10:38:51;96132.28;;;27.01;38.38
4012;BME280;2020;48.682;9.024;2023-06-10T10:41:18;96139.06;;;27.80;38.39
4012;BME280;2020;48.682;9.024;2023-06-10T10:43:44;96129.41;;;27.84;37.85
4012;BME280;2020;48.682;9.024;2023-06-10T10:46:16;96132.59;;;27.86;37.62
4012;BME280;2020;48.682;9.024;2023-06-10T10:48:42;96130.09;;;27.39;38.60
4012;BME280;2020;48.682;9.024;2023-06-10T10:51:09;96134.44;;;26.89;38.60
4012;BME280;2020;48.682;9.024;2023-06-10T10:53:34;96139.22;;;26.40;38.82
4012;BME280;2020;48.682;9.024;2023-06-10T10:56:12;96125.63;;;27.09;38.21
4012;BME280;2020;48.682;9.024;2023-06-10T10:58:38;96132.50;;;27.30;37.60
4012;BME280;2020;48.682;9.024;2023-06-10T11:01:12;96125.81;;;27.54;37.10
4012;BME280;2020;48.682;9.024;2023-06-10T11:03:43;96126.19;;;27.87;38.63
4012;BME280;2020;48.682;9.024;2023-06-10T11:06:14;96120.84;;;27.87;36.54
4012;BME280;2020;48.682;9.024;2023-06-10T11:11:26;96118.06;;;28.08;35.94
4012;BME280;2020;48.682;9.024;2023-06-10T11:14:04;96117.78;;;28.14;35.81
4012;BME280;2020;48.682;9.024;2023-06-10T11:16:39;96120.47;;;28.54;35.87
4012;BME280;2020;48.682;9.024;2023-06-10T11:19:05;96108.31;;;28.27;34.42
4012;BME280;2020;48.682;9.024;2023-06-10T11:21:30;96122.53;;;28.63;33.92
4012;BME280;2020;48.682;9.024;2023-06-10T11:23:58;96110.22;;;28.27;34.08
4012;BME280;2020;48.682;9.024;2023-06-10T11:31:25;96116.53;;;28.76;33.95
4012;BME280;2020;48.682;9.024;2023-06-10T11:33:56;96118.19;;;28.72;34.38
4012;BME280;2020;48.682;9.024;2023-06-10T11:36:22;96103.59;;;28.88;35.31
4012;BME280;2020;48.682;9.024;2023-06-10T11:38:48;96107.66;;;29.40;35.25
4012;BME280;2020;48.682;9.024;2023-06-10T11:41:14;96107.97;;;29.33;34.63
4012;BME280;2020;48.682;9.024;2023-06-10T11:43:43;96111.66;;;29.37;33.40
4012;BME280;2020;48.682;9.024;2023-06-10T11:46:09;96117.19;;;29.70;34.62
4012;BME280;2020;48.682;9.024;2023-06-10T11:48:35;96111.38;;;29.63;34.39
4012;BME280;2020;48.682;9.024;2023-06-10T11:51:00;96106.63;;;29.06;35.01
4012;BME280;2020;48.682;9.024;2023-06-10T11:53:25;96106.00;;;28.55;35.49
4012;BME280;2020;48.682;9.024;2023-06-10T11:55:51;96099.78;;;28.25;36.16
4012;BME280;2020;48.682;9.024;2023-06-10T11:58:20;96105.75;;;28.07;36.45
4012;BME280;2020;48.682;9.024;2023-06-10T12:00:48;96105.19;;;28.10;34.64
4012;BME280;2020;48.682;9.024;2023-06-10T12:03:13;96093.13;;;28.57;35.05
4012;BME280;2020;48.682;9.024;2023-06-10T12:05:39;96092.41;;;28.81;34.46
4012;BME280;2020;48.682;9.024;2023-06-10T12:08:11;96082.59;;;29.01;32.98
4012;BME280;2020;48.682;9.024;2023-06-10T12:10:42;96092.78;;;28.99;32.61
4012;BME280;2020;48.682;9.024;2023-06-10T12:13:09;96095.34;;;29.09;33.42
4012;BME280;2020;48.682;9.024;2023-06-10T12:15:34;96097.16;;;29.43;32.96
4012;BME280;2020;48.682;9.024;2023-06-10T12:18:00;96093.59;;;29.24;33.61
4012;BME280;2020;48.682;9.024;2023-06-10T12:20:30;96094.97;;;29.45;34.02
4012;BME280;2020;48.682;9.024;2023-06-10T12:22:58;96093.63;;;29.48;33.19
4012;BME280;2020;48.682;9.024;2023-06-10T12:25:26;96084.34;;;29.35;34.34
4012;BME280;2020;48.682;9.024;2023-06-10T12:27:53;96080.25;;;29.18;34.29
4012;BME280;2020;48.682;9.024;2023-06-10T12:30:20;96083.56;;;28.46;34.88
4012;BME280;2020;48.682;9.024;2023-06-10T12:32:46;96085.53;;;28.70;35.24
4012;BME280;2020;48.682;9.024;2023-06-10T12:35:17;96091.63;;;28.41;35.31
4012;BME280;2020;48.682;9.024;2023-06-10T12:37:57;96085.34;;;28.21;35.56
4012;BME280;2020;48.682;9.024;2023-06-10T12:40:32;96084.78;;;27.79;36.09
4012;BME280;2020;48.682;9.024;2023-06-10T12:42:59;96100.88;;;27.64;36.67
4012;BME280;2020;48.682;9.024;2023-06-10T12:45:30;96087.72;;;27.83;36.44
4012;BME280;2020;48.682;9.024;2023-06-10T12:48:21;96091.59;;;27.56;36.30
4012;BME280;2020;48.682;9.024;2023-06-10T12:50:52;96094.28;;;27.40;36.54
4012;BME280;2020;48.682;9.024;2023-06-10T12:53:18;96091.38;;;27.32;37.17
4012;BME280;2020;48.682;9.024;2023-06-10T12:55:44;96093.72;;;28.09;35.59
4012;BME280;2020;48.682;9.024;2023-06-10T12:58:13;96082.69;;;28.21;34.35
4012;BME280;2020;48.682;9.024;2023-06-10T13:00:39;96077.94;;;28.82;34.15
4012;BME280;2020;48.682;9.024;2023-06-10T13:03:05;96082.53;;;29.06;33.80
4012;BME280;2020;48.682;9.024;2023-06-10T13:05:33;96077.63;;;29.13;33.79
4012;BME280;2020;48.682;9.024;2023-06-10T13:07:59;96073.28;;;29.17;32.62
4012;BME280;2020;48.682;9.024;2023-06-10T13:10:25;96071.38;;;29.47;33.08
4012;BME280;2020;48.682;9.024;2023-06-10T13:12:51;96077.38;;;29.83;34.03
4012;BME280;2020;48.682;9.024;2023-06-10T13:15:17;96067.31;;;28.72;34.12
4012;BME280;2020;48.682;9.024;2023-06-10T13:17:45;96072.34;;;28.44;36.01
4012;BME280;2020;48.682;9.024;2023-06-10T13:20:15;96068.72;;;28.94;34.79
4012;BME280;2020;48.682;9.024;2023-06-10T13:22:43;96065.19;;;29.23;34.81
4012;BME280;2020;48.682;9.024;2023-06-10T13:25:09;96066.72;;;28.80;34.59
4012;BME280;2020;48.682;9.024;2023-06-10T13:27:35;96068.38;;;28.41;35.46
4012;BME280;2020;48.682;9.024;2023-06-10T13:30:04;96066.06;;;28.24;35.71
4012;BME280;2020;48.682;9.024;2023-06-10T13:32:30;96068.19;;;27.82;35.87
4012;BME280;2020;48.682;9.024;2023-06-10T13:34:56;96062.97;;;28.07;36.00
4012;BME280;2020;48.682;9.024;2023-06-10T13:37:22;96058.84;;;28.59;35.06